Time;durP1;ratioP1;P1;durP2;ratioP2;P2;SDS_P1;SDS_P2;PMS_P1;PMS_P2;Temp;Humidity;BMP_temperature;BMP_pressure;BME280_temperature;BME280_humidity;BME280_pressure;Samples;Min_cycle;Max_cycle;Signal;HPM_P1;HPM_P2
2021/12/14 00:01:59;;;;;;;;;;;;;;;;;;5075371;28;20383;-75
2021/12/14 00:04:26;;;;;;;;;;;;;;;;;;5093405;28;19912;-78
2021/12/14 00:06:52;;;;;;;;;;;;;;;;;;5095547;28;19915;-79
2021/12/14 00:09:24;;;;;;;;;;;;;;;;;;5095621;28;19908;-73
2021/12/14 00:16:45;;;;;;;;;;;;;;;;;;5075018;28;19994;-73
2021/12/14 00:19:11;;;;;;;;;;;;;;;;;;5075231;28;20350;-79
2021/12/14 00:21:37;;;;;;;;;;;;;;;;;;5075594;28;20066;-70
2021/12/14 00:24:06;;;;;;;;;;;;;;;;;;5074985;28;19915;-76
2021/12/14 00:26:32;;;;;;;;;;;;;;;;;;5074629;28;19995;-74
2021/12/14 00:28:58;;;;;;;;;;;;;;;;;;5074166;28;19948;-76
2021/12/14 00:31:24;;;;;;;;;;;;;;;;;;5074834;28;19987;-70
2021/12/14 00:33:50;;;;;;;;;;;;;;;;;;5090602;28;20431;-79
2021/12/14 00:36:16;;;;;;;;;;;;;;;;;;5075175;28;20343;-80
2021/12/14 00:38:41;;;;;;;;;;;;;;;;;;5075375;28;19927;-78
2021/12/14 00:41:07;;;;;;;;;;;;;;;;;;5091261;28;19927;-80
2021/12/14 00:43:33;;;;;;;;;;;;;;;;;;5074669;28;19909;-78
2021/12/14 00:45:59;;;;;;;;;;;;;;;;;;5075376;28;19915;-76
2021/12/14 00:48:25;;;;;;;;;;;;;;;;;;5105041;28;19909;-75
2021/12/14 00:50:51;;;;;;;;;;;;;;;;;;5083095;28;19909;-82
2021/12/14 00:53:17;;;;;;;;;;;;;;;;;;5074804;28;19915;-73
2021/12/14 00:55:43;;;;;;;;;;;;;;;;;;5075270;28;19955;-79
2021/12/14 00:58:09;;;;;;;;;;;;;;;;;;5074666;28;19908;-80
2021/12/14 01:00:35;;;;;;;;;;;;;;;;;;5074722;28;19909;-76
2021/12/14 01:03:01;;;;;;;;;;;;;;;;;;5074611;28;20260;-79
2021/12/14 01:05:28;;;;;;;;;;;;;;;;;;5090445;28;20306;-82
2021/12/14 01:07:54;;;;;;;;;;;;;;;;;;5090124;28;19961;-77
2021/12/14 01:10:20;;;;;;;;;;;;;;;;;;5091033;28;19912;-80
2021/12/14 01:12:53;;;;;;;;;;;;;;;;;;5093950;28;19977;-79
2021/12/14 01:18:01;;;;;;;;;;;;;;;;;;5115011;28;19907;-80
2021/12/14 01:20:32;;;;;;;;;;;;;;;;;;5114315;28;19968;-77
2021/12/14 01:23:01;;;;;;;;;;;;;;;;;;5114445;28;19920;-76
2021/12/14 01:25:27;;;;;;;;;;;;;;;;;;5114634;28;19915;-79
2021/12/14 01:27:53;;;;;;;;;;;;;;;;;;5115083;28;19908;-75
2021/12/14 01:30:19;;;;;;;;;;;;;;;;;;5076777;27;19920;-77
2021/12/14 01:32:46;;;;;;;;;;;;;;;;;;5074806;28;19930;-72
2021/12/14 01:35:14;;;;;;;;;;;;;;;;;;5074505;28;19912;-64
2021/12/14 01:37:45;;;;;;;;;;;;;;;;;;5073735;28;19917;-69
2021/12/14 01:40:29;;;;;;;;;;;;;;;;;;5074309;28;19909;-72
2021/12/14 01:42:55;;;;;;;;;;;;;;;;;;5082435;28;19956;-73
2021/12/14 01:45:21;;;;;;;;;;;;;;;;;;5076915;28;20295;-79
2021/12/14 01:47:47;;;;;;;;;;;;;;;;;;5073787;28;19915;-80
2021/12/14 01:50:13;;;;;;;;;;;;;;;;;;5089719;28;20348;-85
2021/12/14 01:52:39;;;;;;;;;;;;;;;;;;5073718;28;19956;-77
2021/12/14 01:55:05;;;;;;;;;;;;;;;;;;5072687;28;19908;-79
2021/12/14 01:57:31;;;;;;;;;;;;;;;;;;5073433;28;19953;-72
2021/12/14 01:59:58;;;;;;;;;;;;;;;;;;5073319;28;20015;-76
2021/12/14 02:02:31;;;;;;;;;;;;;;;;;;5074912;28;19916;-79
2021/12/14 02:04:56;;;;;;;;;;;;;;;;;;5093412;28;20279;-76
2021/12/14 02:07:22;;;;;;;;;;;;;;;;;;5092392;28;19999;-77
2021/12/14 02:09:48;;;;;;;;;;;;;;;;;;5073222;28;19940;-72
2021/12/14 02:12:14;;;;;;;;;;;;;;;;;;5073161;28;19961;-78
2021/12/14 02:14:40;;;;;;;;;;;;;;;;;;5073309;28;19904;-78
2021/12/14 02:17:06;;;;;;;;;;;;;;;;;;5073090;28;19916;-62
2021/12/14 02:19:32;;;;;;;;;;;;;;;;;;5073476;28;19909;-82
2021/12/14 02:21:58;;;;;;;;;;;;;;;;;;5088441;28;20454;-78
2021/12/14 02:24:24;;;;;;;;;;;;;;;;;;5088574;28;19908;-80
2021/12/14 02:26:50;;;;;;;;;;;;;;;;;;5072580;28;20378;-76
2021/12/14 02:29:16;;;;;;;;;;;;;;;;;;5072782;28;20387;-72
2021/12/14 02:31:41;;;;;;;;;;;;;;;;;;5072573;28;19912;-76
2021/12/14 02:34:08;;;;;;;;;;;;;;;;;;5072569;28;19909;-80
2021/12/14 02:36:34;;;;;;;;;;;;;;;;;;5072967;28;19919;-64
2021/12/14 02:39:22;;;;;;;;;;;;;;;;;;5072307;28;19924;-65
2021/12/14 02:41:49;;;;;;;;;;;;;;;;;;5071891;28;20227;-66
2021/12/14 02:44:15;;;;;;;;;;;;;;;;;;5072493;28;20004;-79
2021/12/14 02:46:41;;;;;;;;;;;;;;;;;;5072612;28;20003;-63
2021/12/14 02:49:07;;;;;;;;;;;;;;;;;;5087864;28;20009;-65
2021/12/14 02:51:33;;;;;;;;;;;;;;;;;;5078819;28;19916;-74
2021/12/14 02:53:59;;;;;;;;;;;;;;;;;;5072845;28;19908;-72
2021/12/14 02:56:25;;;;;;;;;;;;;;;;;;5087587;28;19908;-72
2021/12/14 02:58:51;;;;;;;;;;;;;;;;;;5072061;28;19999;-65
2021/12/14 03:01:17;;;;;;;;;;;;;;;;;;5072234;28;20354;-66
2021/12/14 03:03:43;;;;;;;;;;;;;;;;;;5072240;28;19959;-86
2021/12/14 03:06:10;;;;;;;;;;;;;;;;;;5072056;28;19904;-78
2021/12/14 03:08:43;;;;;;;;;;;;;;;;;;5072082;28;19912;-78
2021/12/14 03:11:10;;;;;;;;;;;;;;;;;;5072432;28;19909;-77
2021/12/14 03:13:36;;;;;;;;;;;;;;;;;;5071000;28;19908;-78
2021/12/14 03:16:02;;;;;;;;;;;;;;;;;;5072308;28;20007;-73
2021/12/14 03:18:28;;;;;;;;;;;;;;;;;;5072331;28;19962;-77
2021/12/14 03:20:53;;;;;;;;;;;;;;;;;;5071970;28;19926;-77
2021/12/14 03:23:19;;;;;;;;;;;;;;;;;;5072104;28;19916;-78
2021/12/14 03:25:45;;;;;;;;;;;;;;;;;;5071940;28;20053;-78
2021/12/14 03:28:11;;;;;;;;;;;;;;;;;;5071863;28;19948;-75
2021/12/14 03:30:37;;;;;;;;;;;;;;;;;;5071812;28;19909;-73
2021/12/14 03:33:03;;;;;;;;;;;;;;;;;;5071897;28;19999;-77
2021/12/14 03:35:29;;;;;;;;;;;;;;;;;;5071889;28;20004;-77
2021/12/14 03:37:55;;;;;;;;;;;;;;;;;;5071721;28;19970;-71
2021/12/14 03:40:21;;;;;;;;;;;;;;;;;;5070675;28;19908;-71
2021/12/14 03:42:47;;;;;;;;;;;;;;;;;;5071854;28;19920;-80
2021/12/14 03:45:13;;;;;;;;;;;;;;;;;;5072035;28;20260;-81
2021/12/14 03:47:39;;;;;;;;;;;;;;;;;;5070603;28;19916;-76
2021/12/14 03:50:04;;;;;;;;;;;;;;;;;;5071954;28;19915;-78
2021/12/14 03:52:30;;;;;;;;;;;;;;;;;;5071697;28;20362;-79
2021/12/14 03:54:56;;;;;;;;;;;;;;;;;;5070429;28;19947;-79
2021/12/14 03:57:22;;;;;;;;;;;;;;;;;;5071812;28;19987;-71
2021/12/14 03:59:48;;;;;;;;;;;;;;;;;;5070648;28;19948;-65
2021/12/14 04:02:16;;;;;;;;;;;;;;;;;;5071832;28;19966;-67
2021/12/14 04:04:43;;;;;;;;;;;;;;;;;;5071655;28;19915;-70
2021/12/14 04:07:10;;;;;;;;;;;;;;;;;;5071689;28;20324;-71
2021/12/14 04:09:36;;;;;;;;;;;;;;;;;;5071708;28;20050;-84
2021/12/14 04:12:01;;;;;;;;;;;;;;;;;;5071899;28;19958;-79
2021/12/14 04:14:29;;;;;;;;;;;;;;;;;;5071904;28;19950;-79
2021/12/14 04:16:55;;;;;;;;;;;;;;;;;;5071736;28;19991;-68
2021/12/14 04:19:23;;;;;;;;;;;;;;;;;;5072303;28;19940;-75
2021/12/14 04:21:49;;;;;;;;;;;;;;;;;;5075467;28;19979;-82
2021/12/14 04:24:14;;;;;;;;;;;;;;;;;;5075431;28;19944;-82
2021/12/14 04:26:44;;;;;;;;;;;;;;;;;;5075202;28;19930;-78
2021/12/14 04:29:12;;;;;;;;;;;;;;;;;;5075198;28;19908;-83
2021/12/14 04:31:38;;;;;;;;;;;;;;;;;;5075179;28;19957;-83
2021/12/14 04:34:04;;;;;;;;;;;;;;;;;;5075290;28;20383;-69
2021/12/14 04:36:30;;;;;;;;;;;;;;;;;;5075145;28;20083;-83
2021/12/14 04:39:01;;;;;;;;;;;;;;;;;;5075120;28;19920;-79
2021/12/14 04:52:26;;;;;;;;;;;;;;;;;;5074915;28;19954;-83
2021/12/14 04:54:52;;;;;;;;;;;;;;;;;;5075035;28;19912;-80
2021/12/14 04:57:18;;;;;;;;;;;;;;;;;;5073654;28;19995;-80
2021/12/14 04:59:44;;;;;;;;;;;;;;;;;;5074984;28;19928;-78
2021/12/14 05:02:10;;;;;;;;;;;;;;;;;;5074372;28;20159;-72
2021/12/14 05:04:36;;;;;;;;;;;;;;;;;;5074248;28;20363;-75
2021/12/14 05:07:28;;;;;;;;;;;;;;;;;;5074563;28;19916;-77
2021/12/14 05:09:48;;;;;;;;;;;;;;;;;;5074506;28;19909;-76
2021/12/14 05:12:14;;;;;;;;;;;;;;;;;;5073355;28;20003;-80
2021/12/14 05:14:40;;;;;;;;;;;;;;;;;;5074593;28;20015;-70
2021/12/14 05:17:06;;;;;;;;;;;;;;;;;;5074869;28;19948;-82
2021/12/14 05:19:32;;;;;;;;;;;;;;;;;;5074595;28;19948;-82
2021/12/14 05:21:57;;;;;;;;;;;;;;;;;;5074474;28;20344;-70
2021/12/14 05:24:24;;;;;;;;;;;;;;;;;;5074249;28;19908;-74
2021/12/14 05:26:50;;;;;;;;;;;;;;;;;;5073044;28;19908;-74
2021/12/14 05:29:16;;;;;;;;;;;;;;;;;;5074205;28;19908;-76
2021/12/14 05:31:42;;;;;;;;;;;;;;;;;;5072909;28;19910;-73
2021/12/14 05:34:08;;;;;;;;;;;;;;;;;;5074097;28;19915;-77
2021/12/14 05:36:34;;;;;;;;;;;;;;;;;;5073835;28;19908;-69
2021/12/14 05:39:18;;;;;;;;;;;;;;;;;;5073328;28;19966;-72
2021/12/14 05:44:28;;;;;;;;;;;;;;;;;;5074028;28;19962;-74
2021/12/14 05:46:54;;;;;;;;;;;;;;;;;;5073827;28;19912;-77
2021/12/14 05:49:20;;;;;;;;;;;;;;;;;;5073581;28;19908;-80
2021/12/14 05:51:46;;;;;;;;;;;;;;;;;;5073763;28;19910;-75
2021/12/14 05:54:12;;;;;;;;;;;;;;;;;;5073557;28;20003;-73
2021/12/14 05:56:38;;;;;;;;;;;;;;;;;;5072201;28;19909;-71
2021/12/14 05:59:04;;;;;;;;;;;;;;;;;;5073455;28;19909;-72
2021/12/14 06:01:30;;;;;;;;;;;;;;;;;;5073290;28;20386;-71
2021/12/14 06:03:56;;;;;;;;;;;;;;;;;;5085051;28;19919;-73
2021/12/14 06:06:21;;;;;;;;;;;;;;;;;;5073040;28;19909;-72
2021/12/14 06:08:47;;;;;;;;;;;;;;;;;;5073031;28;19908;-71
2021/12/14 06:11:13;;;;;;;;;;;;;;;;;;5073330;28;19955;-72
2021/12/14 06:13:40;;;;;;;;;;;;;;;;;;5073572;28;19915;-74
2021/12/14 06:16:06;;;;;;;;;;;;;;;;;;5073127;28;19913;-71
2021/12/14 06:18:32;;;;;;;;;;;;;;;;;;5073194;28;19908;-81
2021/12/14 06:20:58;;;;;;;;;;;;;;;;;;5073324;28;19917;-76
2021/12/14 06:23:24;;;;;;;;;;;;;;;;;;5072911;28;19920;-80
2021/12/14 06:25:50;;;;;;;;;;;;;;;;;;5072925;28;19908;-82
2021/12/14 06:28:16;;;;;;;;;;;;;;;;;;5072816;28;19944;-75
2021/12/14 06:30:43;;;;;;;;;;;;;;;;;;5072815;28;19916;-70
2021/12/14 06:33:09;;;;;;;;;;;;;;;;;;5072903;28;19908;-68
2021/12/14 06:35:36;;;;;;;;;;;;;;;;;;5072877;28;19908;-81
2021/12/14 06:40:28;;;;;;;;;;;;;;;;;;5073202;28;19908;-81
2021/12/14 06:42:54;;;;;;;;;;;;;;;;;;5072504;28;19969;-82
2021/12/14 06:45:20;;;;;;;;;;;;;;;;;;5072648;28;19961;-69
2021/12/14 06:47:46;;;;;;;;;;;;;;;;;;5072762;28;19915;-79
2021/12/14 06:50:12;;;;;;;;;;;;;;;;;;5105204;28;19909;-70
2021/12/14 06:52:38;;;;;;;;;;;;;;;;;;5105255;28;20058;-80
2021/12/14 06:55:04;;;;;;;;;;;;;;;;;;5072424;28;19954;-64
2021/12/14 06:57:29;;;;;;;;;;;;;;;;;;5072314;28;19909;-78
2021/12/14 06:59:55;;;;;;;;;;;;;;;;;;5072423;28;19915;-74
2021/12/14 07:02:21;;;;;;;;;;;;;;;;;;5072184;28;19969;-72
2021/12/14 07:04:49;;;;;;;;;;;;;;;;;;5072275;28;19924;-72
2021/12/14 07:07:15;;;;;;;;;;;;;;;;;;5072259;28;19955;-68
2021/12/14 07:09:41;;;;;;;;;;;;;;;;;;5072222;28;20318;-74
2021/12/14 07:12:07;;;;;;;;;;;;;;;;;;5104746;28;20405;-69
2021/12/14 07:14:33;;;;;;;;;;;;;;;;;;5071852;28;19908;-70
2021/12/14 07:17:01;;;;;;;;;;;;;;;;;;5071837;28;19954;-76
2021/12/14 07:19:27;;;;;;;;;;;;;;;;;;5072007;28;20010;-80
2021/12/14 07:21:53;;;;;;;;;;;;;;;;;;5104900;28;20023;-79
2021/12/14 07:24:18;;;;;;;;;;;;;;;;;;5071991;28;19943;-76
2021/12/14 07:26:44;;;;;;;;;;;;;;;;;;5072051;28;20379;-73
2021/12/14 07:29:10;;;;;;;;;;;;;;;;;;5072070;28;19948;-77
2021/12/14 07:31:38;;;;;;;;;;;;;;;;;;5072015;28;19964;-69
2021/12/14 07:34:04;;;;;;;;;;;;;;;;;;5072013;28;19912;-73
2021/12/14 07:36:30;;;;;;;;;;;;;;;;;;5071721;28;20387;-69
2021/12/14 07:38:57;;;;;;;;;;;;;;;;;;5071591;28;19925;-79
2021/12/14 07:41:23;;;;;;;;;;;;;;;;;;5104488;28;20371;-75
2021/12/14 07:43:49;;;;;;;;;;;;;;;;;;5071870;28;19915;-71
2021/12/14 07:46:15;;;;;;;;;;;;;;;;;;5071834;28;19908;-69
2021/12/14 07:48:41;;;;;;;;;;;;;;;;;;5071815;28;19909;-76
2021/12/14 07:51:07;;;;;;;;;;;;;;;;;;5071812;28;19912;-75
2021/12/14 07:53:33;;;;;;;;;;;;;;;;;;5072416;28;20402;-66
2021/12/14 07:55:59;;;;;;;;;;;;;;;;;;5075827;28;19908;-75
2021/12/14 07:58:25;;;;;;;;;;;;;;;;;;5108454;28;19915;-81
2021/12/14 08:00:51;;;;;;;;;;;;;;;;;;5075880;28;19944;-72
2021/12/14 08:03:17;;;;;;;;;;;;;;;;;;5075285;28;20012;-83
2021/12/14 08:05:43;;;;;;;;;;;;;;;;;;5075345;28;19948;-79
2021/12/14 08:08:16;;;;;;;;;;;;;;;;;;5075636;28;19940;-78
2021/12/14 08:10:45;;;;;;;;;;;;;;;;;;5075633;28;20409;-80
2021/12/14 08:13:13;;;;;;;;;;;;;;;;;;5075720;28;20309;-75
2021/12/14 08:15:38;;;;;;;;;;;;;;;;;;5074801;28;19954;-83
2021/12/14 08:18:04;;;;;;;;;;;;;;;;;;5075602;28;19909;-81
2021/12/14 08:20:30;;;;;;;;;;;;;;;;;;5075896;28;19912;-83
2021/12/14 08:22:56;;;;;;;;;;;;;;;;;;5075608;28;20030;-84
2021/12/14 08:25:22;;;;;;;;;;;;;;;;;;5075341;28;20049;-79
2021/12/14 08:27:48;;;;;;;;;;;;;;;;;;5075331;28;19916;-74
2021/12/14 08:30:14;;;;;;;;;;;;;;;;;;5075686;28;20392;-65
2021/12/14 08:32:40;;;;;;;;;;;;;;;;;;5077804;28;19991;-77
2021/12/14 08:35:06;;;;;;;;;;;;;;;;;;5075993;28;19910;-82
2021/12/14 08:37:32;;;;;;;;;;;;;;;;;;5077660;28;20006;-70
2021/12/14 08:40:01;;;;;;;;;;;;;;;;;;5096477;28;19944;-77
2021/12/14 08:42:33;;;;;;;;;;;;;;;;;;5102937;28;20015;-81
2021/12/14 08:44:59;;;;;;;;;;;;;;;;;;5097845;28;20322;-75
2021/12/14 08:47:25;;;;;;;;;;;;;;;;;;5094792;28;20563;-72
2021/12/14 08:49:51;;;;;;;;;;;;;;;;;;5091353;28;19908;-69
2021/12/14 08:52:17;;;;;;;;;;;;;;;;;;5088949;28;19909;-80
2021/12/14 08:54:43;;;;;;;;;;;;;;;;;;5108642;27;19957;-81
2021/12/14 08:57:09;;;;;;;;;;;;;;;;;;5087871;28;19981;-86
2021/12/14 08:59:35;;;;;;;;;;;;;;;;;;5093362;28;19908;-83
2021/12/14 09:02:03;;;;;;;;;;;;;;;;;;5094292;28;20065;-82
2021/12/14 09:04:30;;;;;;;;;;;;;;;;;;5096558;28;20335;-77
2021/12/14 09:06:56;;;;;;;;;;;;;;;;;;5095699;28;19924;-85
2021/12/14 09:09:22;;;;;;;;;;;;;;;;;;5093648;28;20023;-89
2021/12/14 09:11:48;;;;;;;;;;;;;;;;;;5094937;28;20362;-64
2021/12/14 09:14:14;;;;;;;;;;;;;;;;;;5094436;28;19915;-78
2021/12/14 09:16:40;;;;;;;;;;;;;;;;;;5094846;28;19962;-81
2021/12/14 09:19:06;;;;;;;;;;;;;;;;;;5095144;28;19912;-78
2021/12/14 09:21:32;;;;;;;;;;;;;;;;;;5094449;28;19962;-79
2021/12/14 09:23:58;;;;;;;;;;;;;;;;;;5094590;28;19912;-79
2021/12/14 09:26:24;;;;;;;;;;;;;;;;;;5088150;28;19966;-79
2021/12/14 09:28:50;;;;;;;;;;;;;;;;;;5080136;28;19909;-87
2021/12/14 09:31:16;;;;;;;;;;;;;;;;;;5074864;28;20315;-82
2021/12/14 09:33:42;;;;;;;;;;;;;;;;;;5072726;28;19914;-80
2021/12/14 09:36:12;;;;;;;;;;;;;;;;;;5073590;28;19940;-76
2021/12/14 09:38:40;;;;;;;;;;;;;;;;;;5073585;28;20277;-70
2021/12/14 09:41:06;;;;;;;;;;;;;;;;;;5073660;28;19927;-81
2021/12/14 09:43:32;;;;;;;;;;;;;;;;;;5076381;28;19920;-79
2021/12/14 09:45:58;;;;;;;;;;;;;;;;;;5073912;28;19908;-64
2021/12/14 09:48:25;;;;;;;;;;;;;;;;;;5073035;28;19995;-80
2021/12/14 09:50:51;;;;;;;;;;;;;;;;;;5073781;28;20022;-75
2021/12/14 09:53:17;;;;;;;;;;;;;;;;;;5073449;28;20275;-80
2021/12/14 09:55:43;;;;;;;;;;;;;;;;;;5089266;28;20434;-80
2021/12/14 09:58:09;;;;;;;;;;;;;;;;;;5073319;28;20352;-76
2021/12/14 10:00:35;;;;;;;;;;;;;;;;;;5080245;28;19912;-79
2021/12/14 10:03:01;;;;;;;;;;;;;;;;;;5073561;28;19917;-75
2021/12/14 10:05:27;;;;;;;;;;;;;;;;;;5072503;28;19909;-80
2021/12/14 10:07:54;;;;;;;;;;;;;;;;;;5073150;28;19935;-78
2021/12/14 10:10:20;;;;;;;;;;;;;;;;;;5071804;28;20465;-80
2021/12/14 10:12:49;;;;;;;;;;;;;;;;;;5072966;28;19909;-78
2021/12/14 10:15:15;;;;;;;;;;;;;;;;;;5073102;28;19909;-79
2021/12/14 10:17:41;;;;;;;;;;;;;;;;;;5078387;28;20386;-79
2021/12/14 10:20:07;;;;;;;;;;;;;;;;;;5091466;28;19916;-78
2021/12/14 10:22:33;;;;;;;;;;;;;;;;;;5093602;28;19930;-85
2021/12/14 10:24:59;;;;;;;;;;;;;;;;;;5093441;28;20001;-82
2021/12/14 10:27:25;;;;;;;;;;;;;;;;;;5093086;28;20371;-80
2021/12/14 10:29:51;;;;;;;;;;;;;;;;;;5093261;28;19908;-82
2021/12/14 10:32:17;;;;;;;;;;;;;;;;;;5082424;28;19935;-73
2021/12/14 10:34:45;;;;;;;;;;;;;;;;;;5073573;28;19909;-88
2021/12/14 10:37:16;;;;;;;;;;;;;;;;;;5072816;28;19991;-75
2021/12/14 10:43:28;;;;;;;;;;;;;;;;;;5072429;28;19978;-80
2021/12/14 10:45:22;;;;;;;;;;;;;;;;;;5067337;28;20274;-75
2021/12/14 10:47:48;;;;;;;;;;;;;;;;;;5072592;28;20444;-68
2021/12/14 10:50:14;;;;;;;;;;;;;;;;;;5084095;28;19964;-81
2021/12/14 10:52:43;;;;;;;;;;;;;;;;;;5093174;28;19912;-81
2021/12/14 10:55:08;;;;;;;;;;;;;;;;;;5093000;28;19981;-75
2021/12/14 10:57:34;;;;;;;;;;;;;;;;;;5092731;28;20287;-72
2021/12/14 11:00:00;;;;;;;;;;;;;;;;;;5094486;28;19953;-85
2021/12/14 11:02:27;;;;;;;;;;;;;;;;;;5094263;28;19993;-83
2021/12/14 11:04:55;;;;;;;;;;;;;;;;;;5094408;28;20363;-78
2021/12/14 11:07:21;;;;;;;;;;;;;;;;;;5112913;28;19908;-70
2021/12/14 11:09:52;;;;;;;;;;;;;;;;;;5115166;28;19957;-85
2021/12/14 11:12:18;;;;;;;;;;;;;;;;;;5100305;28;19923;-76
2021/12/14 11:14:44;;;;;;;;;;;;;;;;;;5093258;28;19938;-84
2021/12/14 11:19:54;;;;;;;;;;;;;;;;;;5100590;28;20298;-84
2021/12/14 11:22:21;;;;;;;;;;;;;;;;;;5104964;28;19916;-82
2021/12/14 11:24:47;;;;;;;;;;;;;;;;;;5095964;28;19908;-81
2021/12/14 11:27:12;;;;;;;;;;;;;;;;;;5096328;28;19908;-76
2021/12/14 11:29:38;;;;;;;;;;;;;;;;;;5092284;28;19908;-83
2021/12/14 11:32:04;;;;;;;;;;;;;;;;;;5092657;28;19912;-73
2021/12/14 11:34:31;;;;;;;;;;;;;;;;;;5092308;28;19918;-74
2021/12/14 11:36:58;;;;;;;;;;;;;;;;;;5092165;28;20440;-70
2021/12/14 11:39:25;;;;;;;;;;;;;;;;;;5071869;28;19927;-78
2021/12/14 11:41:51;;;;;;;;;;;;;;;;;;5070999;28;19916;-73
2021/12/14 11:44:16;;;;;;;;;;;;;;;;;;5071822;28;19915;-68
2021/12/14 11:46:44;;;;;;;;;;;;;;;;;;5071903;28;19911;-77
2021/12/14 11:49:10;;;;;;;;;;;;;;;;;;5071914;28;20343;-81
2021/12/14 11:51:36;;;;;;;;;;;;;;;;;;5071950;28;19952;-76
2021/12/14 11:54:02;;;;;;;;;;;;;;;;;;5112294;28;19948;-66
2021/12/14 11:56:28;;;;;;;;;;;;;;;;;;5091824;28;19912;-69
2021/12/14 11:58:55;;;;;;;;;;;;;;;;;;5092436;28;19904;-69
2021/12/14 12:01:20;;;;;;;;;;;;;;;;;;5092456;28;19908;-78
2021/12/14 12:03:47;;;;;;;;;;;;;;;;;;5090584;28;19923;-77
2021/12/14 12:06:33;;;;;;;;;;;;;;;;;;5090541;28;19908;-80
2021/12/14 12:11:43;;;;;;;;;;;;;;;;;;5092216;28;19916;-79
2021/12/14 12:14:09;;;;;;;;;;;;;;;;;;5092008;28;19916;-76
2021/12/14 12:16:35;;;;;;;;;;;;;;;;;;5091640;28;20305;-78
2021/12/14 12:19:01;;;;;;;;;;;;;;;;;;5091796;28;20528;-74
2021/12/14 12:21:27;;;;;;;;;;;;;;;;;;5091717;28;20006;-80
2021/12/14 12:23:53;;;;;;;;;;;;;;;;;;5091793;28;19915;-78
2021/12/14 12:26:19;;;;;;;;;;;;;;;;;;5091674;28;20347;-78
2021/12/14 12:28:47;;;;;;;;;;;;;;;;;;5091653;28;19912;-73
2021/12/14 12:31:15;;;;;;;;;;;;;;;;;;5091472;28;19909;-71
2021/12/14 12:33:41;;;;;;;;;;;;;;;;;;5091448;28;19953;-70
2021/12/14 12:36:07;;;;;;;;;;;;;;;;;;5091467;28;19998;-63
2021/12/14 12:38:33;;;;;;;;;;;;;;;;;;5091170;28;20002;-67
2021/12/14 12:40:59;;;;;;;;;;;;;;;;;;5094166;28;19915;-69
2021/12/14 12:43:26;;;;;;;;;;;;;;;;;;5089964;28;19952;-75
2021/12/14 12:45:52;;;;;;;;;;;;;;;;;;5107104;28;19915;-73
2021/12/14 12:48:18;;;;;;;;;;;;;;;;;;5074768;28;20342;-69
2021/12/14 12:50:43;;;;;;;;;;;;;;;;;;5074433;28;20395;-74
2021/12/14 12:53:09;;;;;;;;;;;;;;;;;;5073787;28;19917;-75
2021/12/14 12:55:35;;;;;;;;;;;;;;;;;;5072588;28;19909;-69
2021/12/14 12:58:11;;;;;;;;;;;;;;;;;;5074349;28;19916;-70
2021/12/14 13:00:38;;;;;;;;;;;;;;;;;;5073272;28;19915;-73
2021/12/14 13:03:04;;;;;;;;;;;;;;;;;;5073225;28;20406;-77
2021/12/14 13:05:30;;;;;;;;;;;;;;;;;;5074532;28;19909;-80
2021/12/14 13:07:56;;;;;;;;;;;;;;;;;;5076143;28;20348;-73
2021/12/14 13:10:23;;;;;;;;;;;;;;;;;;5074924;28;19938;-76
2021/12/14 13:12:55;;;;;;;;;;;;;;;;;;5074509;28;19908;-85
2021/12/14 13:15:21;;;;;;;;;;;;;;;;;;5073185;28;19905;-75
2021/12/14 13:17:47;;;;;;;;;;;;;;;;;;5074418;28;19913;-79
2021/12/14 13:20:13;;;;;;;;;;;;;;;;;;5074292;28;19908;-79
2021/12/14 13:22:39;;;;;;;;;;;;;;;;;;5073359;28;19916;-77
2021/12/14 13:25:05;;;;;;;;;;;;;;;;;;5074416;28;20374;-75
2021/12/14 13:27:31;;;;;;;;;;;;;;;;;;5074181;28;19913;-74
2021/12/14 13:29:58;;;;;;;;;;;;;;;;;;5072727;28;19954;-75
2021/12/14 13:32:24;;;;;;;;;;;;;;;;;;5072867;28;19913;-77
2021/12/14 13:34:50;;;;;;;;;;;;;;;;;;5074053;28;19909;-77
2021/12/14 13:37:16;;;;;;;;;;;;;;;;;;5074427;28;20291;-71
2021/12/14 13:39:41;;;;;;;;;;;;;;;;;;5075335;28;19919;-78
2021/12/14 13:42:07;;;;;;;;;;;;;;;;;;5075171;28;20397;-82
2021/12/14 13:44:33;;;;;;;;;;;;;;;;;;5075250;28;19909;-76
2021/12/14 13:46:59;;;;;;;;;;;;;;;;;;5078437;28;19909;-80
2021/12/14 13:49:25;;;;;;;;;;;;;;;;;;5075239;28;20007;-78
2021/12/14 13:51:51;;;;;;;;;;;;;;;;;;5105184;28;19995;-77
2021/12/14 13:54:17;;;;;;;;;;;;;;;;;;5073879;28;20390;-77
2021/12/14 13:56:43;;;;;;;;;;;;;;;;;;5076423;28;19909;-81
2021/12/14 13:59:09;;;;;;;;;;;;;;;;;;5081288;28;20392;-79
2021/12/14 14:01:35;;;;;;;;;;;;;;;;;;5084520;28;19915;-72
2021/12/14 14:04:01;;;;;;;;;;;;;;;;;;5076673;28;19944;-79
2021/12/14 14:06:27;;;;;;;;;;;;;;;;;;5074313;28;19912;-88
2021/12/14 14:08:53;;;;;;;;;;;;;;;;;;5088791;28;19908;-89
2021/12/14 14:11:19;;;;;;;;;;;;;;;;;;5094881;28;20003;-85
2021/12/14 14:13:45;;;;;;;;;;;;;;;;;;5088003;28;20401;-84
2021/12/14 14:16:11;;;;;;;;;;;;;;;;;;5073036;28;19999;-74
2021/12/14 14:18:37;;;;;;;;;;;;;;;;;;5072839;28;19992;-78
2021/12/14 14:21:05;;;;;;;;;;;;;;;;;;5086990;28;19915;-74
2021/12/14 14:23:31;;;;;;;;;;;;;;;;;;5092854;28;20387;-80
2021/12/14 14:25:57;;;;;;;;;;;;;;;;;;5092733;28;19908;-69
2021/12/14 14:28:24;;;;;;;;;;;;;;;;;;5092840;28;19915;-66
2021/12/14 14:30:51;;;;;;;;;;;;;;;;;;5091794;28;20375;-79
2021/12/14 14:33:22;;;;;;;;;;;;;;;;;;5077990;28;19919;-80
2021/12/14 14:35:48;;;;;;;;;;;;;;;;;;5072354;28;19913;-81
2021/12/14 14:38:14;;;;;;;;;;;;;;;;;;5072396;28;20003;-76
2021/12/14 14:40:40;;;;;;;;;;;;;;;;;;5071951;28;19913;-75
2021/12/14 14:43:07;;;;;;;;;;;;;;;;;;5073484;28;19923;-74
2021/12/14 14:45:33;;;;;;;;;;;;;;;;;;5092698;28;19908;-82
2021/12/14 14:47:59;;;;;;;;;;;;;;;;;;5091184;28;19908;-73
2021/12/14 14:50:25;;;;;;;;;;;;;;;;;;5092579;28;19908;-77
2021/12/14 14:52:51;;;;;;;;;;;;;;;;;;5091218;28;19919;-73
2021/12/14 14:55:17;;;;;;;;;;;;;;;;;;5092491;28;19916;-75
2021/12/14 14:57:43;;;;;;;;;;;;;;;;;;5092422;28;19912;-74
2021/12/14 15:00:09;;;;;;;;;;;;;;;;;;5094484;28;19916;-82
2021/12/14 15:02:35;;;;;;;;;;;;;;;;;;5092625;28;20386;-76
2021/12/14 15:05:01;;;;;;;;;;;;;;;;;;5092344;28;19908;-77
2021/12/14 15:07:27;;;;;;;;;;;;;;;;;;5092122;28;20101;-74
2021/12/14 15:09:52;;;;;;;;;;;;;;;;;;5090985;28;20428;-75
2021/12/14 15:12:20;;;;;;;;;;;;;;;;;;5092228;28;20440;-75
2021/12/14 15:14:46;;;;;;;;;;;;;;;;;;5090773;28;19915;-76
2021/12/14 15:17:12;;;;;;;;;;;;;;;;;;5092079;28;19912;-62
2021/12/14 15:19:38;;;;;;;;;;;;;;;;;;5091815;28;19908;-76
2021/12/14 15:22:04;;;;;;;;;;;;;;;;;;5091999;28;19923;-74
2021/12/14 15:24:30;;;;;;;;;;;;;;;;;;5092066;28;20342;-76
2021/12/14 15:26:56;;;;;;;;;;;;;;;;;;5091090;28;19953;-72
2021/12/14 15:29:22;;;;;;;;;;;;;;;;;;5092051;28;19908;-77
2021/12/14 15:31:48;;;;;;;;;;;;;;;;;;5091825;28;19914;-77
2021/12/14 15:34:14;;;;;;;;;;;;;;;;;;5091876;28;19940;-81
2021/12/14 15:36:40;;;;;;;;;;;;;;;;;;5091923;28;20353;-71
2021/12/14 15:39:06;;;;;;;;;;;;;;;;;;5091704;28;20559;-77
2021/12/14 15:41:32;;;;;;;;;;;;;;;;;;5091821;28;20070;-77
2021/12/14 15:43:58;;;;;;;;;;;;;;;;;;5087101;28;19999;-78
2021/12/14 15:46:24;;;;;;;;;;;;;;;;;;5071809;28;19908;-76
2021/12/14 15:48:50;;;;;;;;;;;;;;;;;;5071575;28;20528;-75
2021/12/14 15:51:16;;;;;;;;;;;;;;;;;;5071694;28;19908;-75
2021/12/14 15:53:42;;;;;;;;;;;;;;;;;;5071640;28;19931;-75
2021/12/14 15:56:08;;;;;;;;;;;;;;;;;;5071631;28;19955;-76
2021/12/14 15:58:33;;;;;;;;;;;;;;;;;;5071572;28;19914;-74
2021/12/14 16:00:59;;;;;;;;;;;;;;;;;;5077731;28;19916;-76
2021/12/14 16:03:25;;;;;;;;;;;;;;;;;;5091824;28;20022;-76
2021/12/14 16:05:52;;;;;;;;;;;;;;;;;;5091783;28;19912;-76
2021/12/14 16:08:18;;;;;;;;;;;;;;;;;;5091684;28;19957;-76
2021/12/14 16:10:51;;;;;;;;;;;;;;;;;;5091717;28;19912;-74
2021/12/14 16:16:02;;;;;;;;;;;;;;;;;;5094883;28;19930;-70
2021/12/14 16:18:27;;;;;;;;;;;;;;;;;;5095683;28;20353;-68
2021/12/14 16:20:53;;;;;;;;;;;;;;;;;;5095545;28;20002;-83
2021/12/14 16:23:19;;;;;;;;;;;;;;;;;;5095538;28;19916;-76
2021/12/14 16:25:45;;;;;;;;;;;;;;;;;;5095329;28;19934;-68
2021/12/14 16:28:11;;;;;;;;;;;;;;;;;;5094854;28;20362;-80
2021/12/14 16:30:38;;;;;;;;;;;;;;;;;;5079789;28;20008;-77
2021/12/14 16:33:04;;;;;;;;;;;;;;;;;;5094627;28;20026;-69
2021/12/14 16:35:29;;;;;;;;;;;;;;;;;;5097408;28;19977;-73
2021/12/14 16:37:55;;;;;;;;;;;;;;;;;;5107235;28;19927;-73
2021/12/14 16:40:21;;;;;;;;;;;;;;;;;;5103758;28;20270;-79
2021/12/14 16:42:47;;;;;;;;;;;;;;;;;;5095783;28;19920;-82
2021/12/14 16:45:13;;;;;;;;;;;;;;;;;;5094824;28;19915;-73
2021/12/14 16:47:41;;;;;;;;;;;;;;;;;;5087167;28;19966;-75
2021/12/14 16:50:07;;;;;;;;;;;;;;;;;;5074510;28;19995;-80
2021/12/14 16:52:33;;;;;;;;;;;;;;;;;;5090813;28;20334;-76
2021/12/14 16:54:59;;;;;;;;;;;;;;;;;;5093437;28;19977;-81
2021/12/14 16:57:25;;;;;;;;;;;;;;;;;;5092900;28;20018;-80
2021/12/14 16:59:51;;;;;;;;;;;;;;;;;;5094665;28;19995;-80
2021/12/14 17:02:17;;;;;;;;;;;;;;;;;;5093620;28;20351;-80
2021/12/14 17:04:43;;;;;;;;;;;;;;;;;;5094786;28;20370;-81
2021/12/14 17:07:09;;;;;;;;;;;;;;;;;;5094689;28;20275;-81
2021/12/14 17:09:35;;;;;;;;;;;;;;;;;;5094633;28;20379;-79
2021/12/14 17:12:00;;;;;;;;;;;;;;;;;;5094961;28;19908;-76
2021/12/14 17:14:28;;;;;;;;;;;;;;;;;;5094676;28;19923;-79
2021/12/14 17:16:54;;;;;;;;;;;;;;;;;;5094759;28;19908;-79